Time;durP1;ratioP1;P1;durP2;ratioP2;P2;SDS_P1;SDS_P2;PMS_P1;PMS_P2;Temp;Humidity;BMP_temperature;BMP_pressure;BME280_temperature;BME280_humidity;BME280_pressure;Samples;Min_cycle;Max_cycle;Signal;HPM_P1;HPM_P2
2023/12/11 00:01:06;;;;;;;0.00;0.00;;;;;;;;;;6215996;23;20012;-83
2023/12/11 00:03:32;;;;;;;0.00;0.00;;;;;;;;;;6217000;23;20011;-83
2023/12/11 00:05:57;;;;;;;0.00;0.00;;;;;;;;;;6242374;23;20083;-84
2023/12/11 00:08:23;;;;;;;0.00;0.00;;;;;;;;;;6211907;23;20047;-84
2023/12/11 00:10:49;;;;;;;0.00;0.00;;;;;;;;;;6243171;22;20054;-83
2023/12/11 00:13:14;;;;;;;0.00;0.00;;;;;;;;;;6242899;22;20347;-83
2023/12/11 00:15:40;;;;;;;0.00;0.00;;;;;;;;;;6216498;23;20004;-83
2023/12/11 00:18:06;;;;;;;0.00;0.00;;;;;;;;;;6242292;23;20008;-83
2023/12/11 00:20:32;;;;;;;0.00;0.00;;;;;;;;;;6241933;23;20070;-82
2023/12/11 00:22:57;;;;;;;0.00;0.00;;;;;;;;;;6243185;22;20004;-82
2023/12/11 00:25:23;;;;;;;0.00;0.00;;;;;;;;;;6191604;23;20467;-83
2023/12/11 00:27:48;;;;;;;0.00;0.00;;;;;;;;;;6242090;23;20343;-83
2023/12/11 00:30:14;;;;;;;0.00;0.00;;;;;;;;;;6242439;23;20419;-83
2023/12/11 00:32:40;;;;;;;0.00;0.00;;;;;;;;;;6241726;23;20015;-83
2023/12/11 00:35:06;;;;;;;0.00;0.00;;;;;;;;;;6216549;23;20007;-83
2023/12/11 00:37:32;;;;;;;0.00;0.00;;;;;;;;;;6242940;22;20059;-82
2023/12/11 00:39:57;;;;;;;0.00;0.00;;;;;;;;;;6249966;23;20004;-83
2023/12/11 00:42:23;;;;;;;0.00;0.00;;;;;;;;;;6220440;23;20019;-83
2023/12/11 00:44:48;;;;;;;0.00;0.00;;;;;;;;;;6270868;22;20016;-82
2023/12/11 00:47:14;;;;;;;0.00;0.00;;;;;;;;;;6271119;22;20012;-83
2023/12/11 00:49:39;;;;;;;0.00;0.00;;;;;;;;;;6270260;23;20008;-84
2023/12/11 00:52:05;;;;;;;0.00;0.00;;;;;;;;;;6270143;23;19996;-82
2023/12/11 00:54:31;;;;;;;0.00;0.00;;;;;;;;;;6271911;22;20051;-83
2023/12/11 00:56:56;;;;;;;0.00;0.00;;;;;;;;;;6271744;22;19996;-82
2023/12/11 00:59:22;;;;;;;0.00;0.00;;;;;;;;;;6256132;23;20093;-82
2023/12/11 01:01:48;;;;;;;0.00;0.00;;;;;;;;;;6246294;22;20004;-83
2023/12/11 01:04:14;;;;;;;0.00;0.00;;;;;;;;;;6218215;23;20004;-83
2023/12/11 01:06:39;;;;;;;0.00;0.00;;;;;;;;;;6193730;23;20090;-83
2023/12/11 01:09:05;;;;;;;0.00;0.00;;;;;;;;;;6239486;23;20051;-83
2023/12/11 01:11:30;;;;;;;0.00;0.00;;;;;;;;;;6242733;23;20012;-83
2023/12/11 01:13:56;;;;;;;0.00;0.00;;;;;;;;;;6245353;22;20000;-83
2023/12/11 01:16:21;;;;;;;0.00;0.00;;;;;;;;;;6218285;23;20461;-83
2023/12/11 01:18:47;;;;;;;0.00;0.00;;;;;;;;;;6243223;23;20000;-82
2023/12/11 01:21:12;;;;;;;0.00;0.00;;;;;;;;;;6243413;23;20069;-83
2023/12/11 01:23:39;;;;;;;0.00;0.00;;;;;;;;;;6243294;23;20008;-83
2023/12/11 01:26:05;;;;;;;0.00;0.00;;;;;;;;;;6218285;23;21181;-83
2023/12/11 01:28:30;;;;;;;0.00;0.00;;;;;;;;;;6218278;23;20004;-83
2023/12/11 01:30:56;;;;;;;0.00;0.00;;;;;;;;;;6192785;23;20004;-82
2023/12/11 01:33:21;;;;;;;0.00;0.00;;;;;;;;;;6243598;23;20079;-83
2023/12/11 01:35:47;;;;;;;0.00;0.00;;;;;;;;;;6243727;23;20008;-83
2023/12/11 01:38:13;;;;;;;0.00;0.00;;;;;;;;;;6243283;23;20010;-83
2023/12/11 01:40:39;;;;;;;0.00;0.00;;;;;;;;;;6217825;23;20047;-83
2023/12/11 01:43:15;;;;;;;0.00;0.00;;;;;;;;;;6218049;23;20007;-83
2023/12/11 01:45:41;;;;;;;0.00;0.00;;;;;;;;;;6243086;23;20008;-83
2023/12/11 01:48:07;;;;;;;0.00;0.00;;;;;;;;;;6244989;22;20023;-83
2023/12/11 01:50:33;;;;;;;0.00;0.00;;;;;;;;;;6216913;23;20015;-83
2023/12/11 01:52:59;;;;;;;0.00;0.00;;;;;;;;;;6216325;23;20353;-83
2023/12/11 01:55:24;;;;;;;0.00;0.00;;;;;;;;;;6242444;23;20000;-83
2023/12/11 01:57:50;;;;;;;0.00;0.00;;;;;;;;;;6242860;23;19997;-83
2023/12/11 02:00:16;;;;;;;0.00;0.00;;;;;;;;;;6243105;23;20039;-83
2023/12/11 02:02:41;;;;;;;0.00;0.00;;;;;;;;;;6217882;23;20386;-83
2023/12/11 02:05:07;;;;;;;0.00;0.00;;;;;;;;;;6243372;22;20004;-82
2023/12/11 02:07:32;;;;;;;0.00;0.00;;;;;;;;;;6243287;23;20050;-83
2023/12/11 02:09:58;;;;;;;0.00;0.00;;;;;;;;;;6243190;23;20498;-83
2023/12/11 02:12:23;;;;;;;0.00;0.00;;;;;;;;;;6243058;23;20083;-83
2023/12/11 02:14:49;;;;;;;0.00;0.00;;;;;;;;;;6217357;23;20008;-83
2023/12/11 02:17:14;;;;;;;0.00;0.00;;;;;;;;;;6217618;23;20008;-83
2023/12/11 02:19:40;;;;;;;0.00;0.00;;;;;;;;;;6242704;23;20011;-82
2023/12/11 02:22:05;;;;;;;0.00;0.00;;;;;;;;;;6244197;22;20050;-83
2023/12/11 02:24:38;;;;;;;0.00;0.00;;;;;;;;;;6244182;22;20054;-83
2023/12/11 02:27:04;;;;;;;0.00;0.00;;;;;;;;;;6218003;23;20005;-83
2023/12/11 02:29:29;;;;;;;0.00;0.00;;;;;;;;;;6243930;23;20000;-83
2023/12/11 02:31:55;;;;;;;0.00;0.00;;;;;;;;;;6243095;23;20323;-83
2023/12/11 02:34:20;;;;;;;0.00;0.00;;;;;;;;;;6242802;23;20000;-83
2023/12/11 02:36:48;;;;;;;0.00;0.00;;;;;;;;;;6243007;23;20395;-83
2023/12/11 02:39:13;;;;;;;0.00;0.00;;;;;;;;;;6242317;23;20082;-83
2023/12/11 02:41:39;;;;;;;0.00;0.00;;;;;;;;;;6241680;23;20051;-83
2023/12/11 02:44:05;;;;;;;0.00;0.00;;;;;;;;;;6243954;22;20143;-83
2023/12/11 02:46:30;;;;;;;0.00;0.00;;;;;;;;;;6217440;23;20016;-83
2023/12/11 02:48:56;;;;;;;0.00;0.00;;;;;;;;;;6242389;23;20004;-83
2023/12/11 02:51:21;;;;;;;0.00;0.00;;;;;;;;;;6243738;22;20087;-83
2023/12/11 02:53:47;;;;;;;0.00;0.00;;;;;;;;;;6243644;22;20078;-83
2023/12/11 02:56:12;;;;;;;0.00;0.00;;;;;;;;;;6243895;22;20039;-83
2023/12/11 02:58:38;;;;;;;0.00;0.00;;;;;;;;;;6244006;22;20003;-83
2023/12/11 03:01:04;;;;;;;0.00;0.00;;;;;;;;;;6242429;23;20347;-83
2023/12/11 03:03:29;;;;;;;0.00;0.00;;;;;;;;;;6217167;23;20000;-83
2023/12/11 03:05:55;;;;;;;0.00;0.00;;;;;;;;;;6217158;23;20027;-83
2023/12/11 03:08:20;;;;;;;0.00;0.00;;;;;;;;;;6241634;23;20012;-83
2023/12/11 03:10:46;;;;;;;0.00;0.00;;;;;;;;;;6215730;23;20008;-83
2023/12/11 03:13:11;;;;;;;0.00;0.00;;;;;;;;;;6242080;23;20019;-83
2023/12/11 03:15:37;;;;;;;0.00;0.00;;;;;;;;;;6242093;23;20008;-83
2023/12/11 03:18:02;;;;;;;0.00;0.00;;;;;;;;;;6241857;23;20007;-83
2023/12/11 03:20:28;;;;;;;0.00;0.00;;;;;;;;;;6242161;23;20023;-83
2023/12/11 03:22:54;;;;;;;0.00;0.00;;;;;;;;;;6214302;23;20008;-83
2023/12/11 03:25:19;;;;;;;0.00;0.00;;;;;;;;;;6243298;22;20402;-83
2023/12/11 03:27:45;;;;;;;0.00;0.00;;;;;;;;;;6243696;22;20000;-83
2023/12/11 03:30:10;;;;;;;0.00;0.00;;;;;;;;;;6243665;22;20000;-83
2023/12/11 03:32:36;;;;;;;0.00;0.00;;;;;;;;;;6242336;23;20004;-82
2023/12/11 03:35:03;;;;;;;0.00;0.00;;;;;;;;;;6216710;23;20028;-83
2023/12/11 03:37:28;;;;;;;0.00;0.00;;;;;;;;;;6217041;23;20008;-83
2023/12/11 03:39:54;;;;;;;0.00;0.00;;;;;;;;;;6243575;22;20000;-83
2023/12/11 03:42:19;;;;;;;0.00;0.00;;;;;;;;;;6241918;23;20008;-83
2023/12/11 03:44:45;;;;;;;0.00;0.00;;;;;;;;;;6216512;23;20028;-83
2023/12/11 03:47:10;;;;;;;0.00;0.00;;;;;;;;;;6216677;23;20541;-83
2023/12/11 03:49:36;;;;;;;0.00;0.00;;;;;;;;;;6243263;22;20000;-83
2023/12/11 03:52:02;;;;;;;0.00;0.00;;;;;;;;;;6243179;22;20008;-82
2023/12/11 03:54:27;;;;;;;0.00;0.00;;;;;;;;;;6241873;23;19996;-82
2023/12/11 03:56:53;;;;;;;0.00;0.00;;;;;;;;;;6216787;23;20365;-83
2023/12/11 03:59:19;;;;;;;0.00;0.00;;;;;;;;;;6243342;22;20000;-83
2023/12/11 04:01:45;;;;;;;0.00;0.00;;;;;;;;;;6243770;22;20363;-83
2023/12/11 04:04:10;;;;;;;0.00;0.00;;;;;;;;;;6241957;23;20000;-82
2023/12/11 04:06:36;;;;;;;0.00;0.00;;;;;;;;;;6243018;22;20450;-82
2023/12/11 04:09:01;;;;;;;0.00;0.00;;;;;;;;;;6191595;23;20008;-82
2023/12/11 04:11:27;;;;;;;0.00;0.00;;;;;;;;;;6216261;23;20008;-83
2023/12/11 04:13:52;;;;;;;0.00;0.00;;;;;;;;;;6241776;23;20004;-83
2023/12/11 04:16:18;;;;;;;0.00;0.00;;;;;;;;;;6243500;22;20015;-83
2023/12/11 04:18:43;;;;;;;0.00;0.00;;;;;;;;;;6241872;23;20000;-80
2023/12/11 04:21:09;;;;;;;0.00;0.00;;;;;;;;;;6216289;23;20012;-83
2023/12/11 04:23:34;;;;;;;0.00;0.00;;;;;;;;;;6216616;23;20000;-83
2023/12/11 04:26:01;;;;;;;0.00;0.00;;;;;;;;;;6237816;23;20020;-83
2023/12/11 04:28:26;;;;;;;0.00;0.00;;;;;;;;;;6192034;23;20009;-83
2023/12/11 04:30:52;;;;;;;0.00;0.00;;;;;;;;;;6243112;23;20090;-83
2023/12/11 04:33:17;;;;;;;0.00;0.00;;;;;;;;;;6245440;22;20004;-84
2023/12/11 04:35:44;;;;;;;0.00;0.00;;;;;;;;;;6243195;23;20417;-83
2023/12/11 04:38:09;;;;;;;0.00;0.00;;;;;;;;;;6194259;23;20036;-83
2023/12/11 04:40:35;;;;;;;0.00;0.00;;;;;;;;;;6269478;22;20061;-83
2023/12/11 04:43:00;;;;;;;0.00;0.00;;;;;;;;;;6243464;23;20008;-83
2023/12/11 04:45:26;;;;;;;0.00;0.00;;;;;;;;;;6243450;23;20058;-84
2023/12/11 04:47:52;;;;;;;0.00;0.00;;;;;;;;;;6218624;23;20012;-83
2023/12/11 04:50:18;;;;;;;0.00;0.00;;;;;;;;;;6243406;23;20004;-83
2023/12/11 04:52:43;;;;;;;0.00;0.00;;;;;;;;;;6218426;23;20014;-84
2023/12/11 04:55:09;;;;;;;0.00;0.00;;;;;;;;;;6243744;23;20324;-83
2023/12/11 04:57:35;;;;;;;0.00;0.00;;;;;;;;;;6218294;23;20435;-83
2023/12/11 05:00:00;;;;;;;0.00;0.00;;;;;;;;;;6220574;23;20004;-83
2023/12/11 05:02:26;;;;;;;0.00;0.00;;;;;;;;;;6225224;23;20004;-83
2023/12/11 05:04:51;;;;;;;0.00;0.00;;;;;;;;;;6250191;23;20011;-82
2023/12/11 05:07:17;;;;;;;0.00;0.00;;;;;;;;;;6252055;22;20001;-81
2023/12/11 05:09:42;;;;;;;0.00;0.00;;;;;;;;;;6225646;23;20023;-82
2023/12/11 05:12:08;;;;;;;0.00;0.00;;;;;;;;;;6246774;23;20012;-82
2023/12/11 05:14:34;;;;;;;0.00;0.00;;;;;;;;;;6226072;23;20023;-84
2023/12/11 05:16:59;;;;;;;0.00;0.00;;;;;;;;;;6246557;22;19996;-84
2023/12/11 05:19:25;;;;;;;0.00;0.00;;;;;;;;;;6217514;23;20098;-83
2023/12/11 05:21:51;;;;;;;0.00;0.00;;;;;;;;;;6217827;23;20004;-85
2023/12/11 05:24:17;;;;;;;0.00;0.00;;;;;;;;;;6243316;23;20008;-85
2023/12/11 05:26:42;;;;;;;0.00;0.00;;;;;;;;;;6216083;23;20020;-85
2023/12/11 05:29:08;;;;;;;0.00;0.00;;;;;;;;;;6244774;22;20004;-84
2023/12/11 05:31:33;;;;;;;0.00;0.00;;;;;;;;;;6242755;23;20411;-85
2023/12/11 05:33:59;;;;;;;0.00;0.00;;;;;;;;;;6242207;23;20004;-84
2023/12/11 05:36:25;;;;;;;0.00;0.00;;;;;;;;;;6242779;23;20007;-85
2023/12/11 05:38:51;;;;;;;0.00;0.00;;;;;;;;;;6243461;23;20004;-87
2023/12/11 05:41:17;;;;;;;0.00;0.00;;;;;;;;;;6247861;22;20007;-86
2023/12/11 05:43:43;;;;;;;0.00;0.00;;;;;;;;;;6231211;23;20028;-84
2023/12/11 05:46:09;;;;;;;0.00;0.00;;;;;;;;;;6254194;23;20007;-83
2023/12/11 05:48:34;;;;;;;0.00;0.00;;;;;;;;;;6217412;23;20092;-81
2023/12/11 05:51:00;;;;;;;0.00;0.00;;;;;;;;;;6243050;23;20000;-83
2023/12/11 05:53:26;;;;;;;0.00;0.00;;;;;;;;;;6215325;23;20459;-81
2023/12/11 05:55:51;;;;;;;0.00;0.00;;;;;;;;;;6239583;23;20004;-81
2023/12/11 05:58:20;;;;;;;0.00;0.00;;;;;;;;;;6238055;22;20106;-79
2023/12/11 06:00:47;;;;;;;0.00;0.00;;;;;;;;;;6202296;23;20008;-79
2023/12/11 06:03:12;;;;;;;0.00;0.00;;;;;;;;;;6221059;22;20468;-80
2023/12/11 06:05:38;;;;;;;0.00;0.00;;;;;;;;;;6216495;23;20034;-80
2023/12/11 06:08:06;;;;;;;0.00;0.00;;;;;;;;;;6218802;23;20024;-80
2023/12/11 06:10:33;;;;;;;0.00;0.00;;;;;;;;;;6221598;23;20059;-80
2023/12/11 06:13:16;;;;;;;0.00;0.00;;;;;;;;;;6222904;23;20016;-79
2023/12/11 06:16:24;;;;;;;0.00;0.00;;;;;;;;;;6224448;22;20107;-79
2023/12/11 06:18:50;;;;;;;0.00;0.00;;;;;;;;;;6181136;22;20030;-83
2023/12/11 06:21:23;;;;;;;0.00;0.00;;;;;;;;;;6226342;23;20460;-85
2023/12/11 06:23:49;;;;;;;0.00;0.00;;;;;;;;;;6231416;23;20035;-83
2023/12/11 06:26:44;;;;;;;0.00;0.00;;;;;;;;;;6225110;23;20058;-80
2023/12/11 06:29:10;;;;;;;0.00;0.00;;;;;;;;;;6199389;23;20083;-81
2023/12/11 06:32:05;;;;;;;0.00;0.00;;;;;;;;;;6230617;23;20015;-85
2023/12/11 06:37:05;;;;;;;0.00;0.00;;;;;;;;;;6235440;22;20027;-82
2023/12/11 06:39:31;;;;;;;0.00;0.00;;;;;;;;;;6187206;23;20074;-84
2023/12/11 06:44:56;;;;;;;0.00;0.00;;;;;;;;;;6178887;23;20009;-84
2023/12/11 06:47:21;;;;;;;0.00;0.00;;;;;;;;;;6167437;23;20016;-90
2023/12/11 06:49:48;;;;;;;0.00;0.00;;;;;;;;;;6185189;23;20395;-89
2023/12/11 06:52:16;;;;;;;0.00;0.00;;;;;;;;;;6158582;23;20406;-90
2023/12/11 06:54:43;;;;;;;0.00;0.00;;;;;;;;;;6138676;23;20000;-90
2023/12/11 06:57:13;;;;;;;0.00;0.00;;;;;;;;;;6159244;23;20016;-90
2023/12/11 06:59:38;;;;;;;0.00;0.00;;;;;;;;;;6133695;23;20015;-89
2023/12/11 07:02:36;;;;;;;0.00;0.00;;;;;;;;;;6142994;23;20000;-86
2023/12/11 07:05:02;;;;;;;0.00;0.00;;;;;;;;;;6146517;23;20513;-84
2023/12/11 07:07:28;;;;;;;0.00;0.00;;;;;;;;;;6202574;22;20031;-81
2023/12/11 07:10:05;;;;;;;0.00;0.00;;;;;;;;;;6182025;22;20035;-86
2023/12/11 07:12:42;;;;;;;0.00;0.00;;;;;;;;;;6183433;23;20408;-83
2023/12/11 07:25:28;;;;;;;0.63;0.30;;;;;;;;;;6238511;22;20092;-82
2023/12/11 07:27:57;;;;;;;0.95;0.88;;;;;;;;;;6216677;23;20074;-87
2023/12/11 07:31:06;;;;;;;1.13;0.77;;;;;;;;;;6215358;23;20015;-87
2023/12/11 07:36:19;;;;;;;0.43;0.30;;;;;;;;;;6239746;22;20016;-84
2023/12/11 07:38:49;;;;;;;0.68;0.43;;;;;;;;;;6235587;23;20036;-85
2023/12/11 07:41:39;;;;;;;0.35;0.22;;;;;;;;;;6207207;23;20012;-82
2023/12/11 07:44:17;;;;;;;0.30;0.30;;;;;;;;;;6217537;23;20008;-86
2023/12/11 07:46:43;;;;;;;0.30;0.30;;;;;;;;;;6240372;22;20007;-82
2023/12/11 07:49:29;;;;;;;0.20;0.15;;;;;;;;;;6240420;23;19996;-86
2023/12/11 07:52:09;;;;;;;0.30;0.30;;;;;;;;;;6127354;23;20337;-87
2023/12/11 07:54:35;;;;;;;0.30;0.25;;;;;;;;;;6188639;23;20454;-88
2023/12/11 07:57:01;;;;;;;0.10;0.10;;;;;;;;;;6247113;22;20024;-86
2023/12/11 07:59:29;;;;;;;0.00;0.00;;;;;;;;;;6192948;23;20004;-84
2023/12/11 08:01:58;;;;;;;0.00;0.00;;;;;;;;;;6196913;23;20004;-89
2023/12/11 08:04:24;;;;;;;0.00;0.00;;;;;;;;;;6243316;22;20098;-85
2023/12/11 08:06:53;;;;;;;0.00;0.00;;;;;;;;;;6228087;23;20378;-88
2023/12/11 08:09:21;;;;;;;0.00;0.00;;;;;;;;;;6239627;23;20000;-85
2023/12/11 08:12:00;;;;;;;0.00;0.00;;;;;;;;;;6223364;23;20553;-86
2023/12/11 08:14:26;;;;;;;0.00;0.00;;;;;;;;;;6195880;23;20004;-86
2023/12/11 08:17:25;;;;;;;0.00;0.00;;;;;;;;;;6241080;22;20101;-89
2023/12/11 08:19:54;;;;;;;0.00;0.00;;;;;;;;;;6194973;23;20011;-87
2023/12/11 08:22:29;;;;;;;0.00;0.00;;;;;;;;;;6242405;23;20444;-86
2023/12/11 08:25:04;;;;;;;0.00;0.00;;;;;;;;;;6215798;23;20011;-87
2023/12/11 08:27:32;;;;;;;0.00;0.00;;;;;;;;;;6217696;23;20103;-87
2023/12/11 08:32:33;;;;;;;0.00;0.00;;;;;;;;;;6240815;22;20039;-83
2023/12/11 08:35:52;;;;;;;0.00;0.00;;;;;;;;;;6231618;22;20020;-87
2023/12/11 08:38:18;;;;;;;0.00;0.00;;;;;;;;;;6243120;23;20035;-84
2023/12/11 08:40:46;;;;;;;0.00;0.00;;;;;;;;;;6264335;23;20023;-89
2023/12/11 08:43:12;;;;;;;0.00;0.00;;;;;;;;;;6216036;22;20063;-91
2023/12/11 08:45:38;;;;;;;0.00;0.00;;;;;;;;;;6241515;23;20549;-91
2023/12/11 08:48:04;;;;;;;0.00;0.00;;;;;;;;;;6240190;22;20008;-87
2023/12/11 08:50:30;;;;;;;0.00;0.00;;;;;;;;;;6240833;23;20319;-91
2023/12/11 08:52:56;;;;;;;0.00;0.00;;;;;;;;;;6235263;23;20019;-87
2023/12/11 08:55:25;;;;;;;0.00;0.00;;;;;;;;;;6215279;23;20024;-88
2023/12/11 08:57:51;;;;;;;0.00;0.00;;;;;;;;;;6265770;23;19999;-89
2023/12/11 09:00:18;;;;;;;0.00;0.00;;;;;;;;;;6233751;22;20008;-91
2023/12/11 09:03:11;;;;;;;0.00;0.00;;;;;;;;;;6238084;22;20090;-84
2023/12/11 09:05:37;;;;;;;0.00;0.00;;;;;;;;;;6238312;23;20446;-86
2023/12/11 09:08:04;;;;;;;0.00;0.00;;;;;;;;;;6239647;23;20056;-87
2023/12/11 09:10:34;;;;;;;0.00;0.00;;;;;;;;;;6239277;22;20082;-90
2023/12/11 09:13:00;;;;;;;0.00;0.00;;;;;;;;;;6215016;23;20103;-87
2023/12/11 09:15:31;;;;;;;0.00;0.00;;;;;;;;;;6216991;23;20008;-85
2023/12/11 09:17:57;;;;;;;0.00;0.00;;;;;;;;;;6242268;23;20011;-80
2023/12/11 09:20:22;;;;;;;0.00;0.00;;;;;;;;;;6214351;23;20008;-87
2023/12/11 09:22:55;;;;;;;0.00;0.00;;;;;;;;;;6240898;23;20015;-87
2023/12/11 09:25:41;;;;;;;0.00;0.00;;;;;;;;;;6242322;22;20005;-85
2023/12/11 09:28:30;;;;;;;0.00;0.00;;;;;;;;;;6244953;22;20015;-88
2023/12/11 09:33:30;;;;;;;0.00;0.00;;;;;;;;;;6243854;22;20245;-86
2023/12/11 09:36:14;;;;;;;0.00;0.00;;;;;;;;;;6215705;23;20324;-86
2023/12/11 09:41:47;;;;;;;0.00;0.00;;;;;;;;;;6228840;22;20030;-83
2023/12/11 09:44:13;;;;;;;0.00;0.00;;;;;;;;;;6244749;22;20768;-85
2023/12/11 09:50:05;;;;;;;0.00;0.00;;;;;;;;;;6191417;22;20357;-86
2023/12/11 09:52:30;;;;;;;0.00;0.00;;;;;;;;;;6245203;23;20035;-89
2023/12/11 09:54:56;;;;;;;0.00;0.00;;;;;;;;;;6249313;22;20308;-89
2023/12/11 09:58:08;;;;;;;0.00;0.00;;;;;;;;;;6221743;23;20000;-88
2023/12/11 10:00:34;;;;;;;0.00;0.00;;;;;;;;;;6235803;22;20019;-84
2023/12/11 10:03:07;;;;;;;0.00;0.00;;;;;;;;;;6214332;22;20008;-84
2023/12/11 10:05:47;;;;;;;0.00;0.00;;;;;;;;;;6217491;23;20011;-82
2023/12/11 10:08:15;;;;;;;0.00;0.00;;;;;;;;;;6239816;22;20450;-79
2023/12/11 10:10:41;;;;;;;0.00;0.00;;;;;;;;;;6239788;23;19996;-82
2023/12/11 10:13:23;;;;;;;0.00;0.00;;;;;;;;;;6238693;23;20015;-84
2023/12/11 10:21:40;;;;;;;0.00;0.00;;;;;;;;;;6240503;23;20106;-82
2023/12/11 10:24:13;;;;;;;0.00;0.00;;;;;;;;;;6240301;22;20012;-84
2023/12/11 10:27:05;;;;;;;0.00;0.00;;;;;;;;;;6268098;22;20000;-81
2023/12/11 10:29:31;;;;;;;0.00;0.00;;;;;;;;;;6264320;23;20078;-82
2023/12/11 10:32:01;;;;;;;0.00;0.00;;;;;;;;;;6266108;22;20008;-84
2023/12/11 10:34:43;;;;;;;0.00;0.00;;;;;;;;;;6266421;22;20010;-84
2023/12/11 10:37:10;;;;;;;0.00;0.00;;;;;;;;;;6263607;22;20076;-89
2023/12/11 10:39:56;;;;;;;0.00;0.00;;;;;;;;;;6259078;23;20011;-86
2023/12/11 10:42:23;;;;;;;0.00;0.00;;;;;;;;;;6247931;22;20303;-89
2023/12/11 10:44:49;;;;;;;0.00;0.00;;;;;;;;;;6197808;23;20004;-88
2023/12/11 10:47:15;;;;;;;0.00;0.00;;;;;;;;;;6246259;23;20132;-87
2023/12/11 10:49:44;;;;;;;0.00;0.00;;;;;;;;;;6242387;23;20090;-88
2023/12/11 10:52:39;;;;;;;0.00;0.00;;;;;;;;;;6255987;23;20008;-88
2023/12/11 10:55:20;;;;;;;0.00;0.00;;;;;;;;;;6256089;22;20003;-86
2023/12/11 10:57:53;;;;;;;0.00;0.00;;;;;;;;;;6201480;23;20081;-87
2023/12/11 11:00:20;;;;;;;0.00;0.00;;;;;;;;;;6249883;23;20082;-88
2023/12/11 11:02:47;;;;;;;0.00;0.00;;;;;;;;;;6227162;23;20008;-86
2023/12/11 11:05:15;;;;;;;0.00;0.00;;;;;;;;;;6245264;23;20000;-87
2023/12/11 11:07:56;;;;;;;0.00;0.00;;;;;;;;;;6220405;23;20015;-86
2023/12/11 11:10:23;;;;;;;;;;;;;;;;;;6213576;23;20362;-92
2023/12/11 11:12:54;;;;;;;0.00;0.00;;;;;;;;;;6240955;23;19966;-82
2023/12/11 11:15:32;;;;;;;0.00;0.00;;;;;;;;;;6248444;22;20031;-86
2023/12/11 11:18:05;;;;;;;0.00;0.00;;;;;;;;;;6247046;22;20008;-84
2023/12/11 11:20:38;;;;;;;0.00;0.00;;;;;;;;;;6249758;22;20007;-85
2023/12/11 11:23:16;;;;;;;0.00;0.00;;;;;;;;;;6250414;23;20011;-82
2023/12/11 11:25:42;;;;;;;0.00;0.00;;;;;;;;;;6249163;22;20027;-85
2023/12/11 11:28:44;;;;;;;0.00;0.00;;;;;;;;;;6249943;23;20015;-83
2023/12/11 11:31:10;;;;;;;0.00;0.00;;;;;;;;;;6253751;23;20007;-83
2023/12/11 11:33:49;;;;;;;0.00;0.00;;;;;;;;;;6250217;22;20355;-87
2023/12/11 11:36:17;;;;;;;0.00;0.00;;;;;;;;;;6246680;23;20001;-86
2023/12/11 11:38:50;;;;;;;0.15;0.00;;;;;;;;;;6219676;23;20024;-87
2023/12/11 11:41:22;;;;;;;0.00;0.00;;;;;;;;;;6256107;22;20000;-85
2023/12/11 11:44:07;;;;;;;0.00;0.00;;;;;;;;;;6249044;23;20008;-86
2023/12/11 11:46:59;;;;;;;0.00;0.00;;;;;;;;;;6241564;23;20507;-88
2023/12/11 11:49:31;;;;;;;0.00;0.00;;;;;;;;;;6237845;22;20015;-83
2023/12/11 11:51:57;;;;;;;0.00;0.00;;;;;;;;;;6186230;23;20012;-79
2023/12/11 11:54:25;;;;;;;0.00;0.00;;;;;;;;;;6237072;22;20782;-82
2023/12/11 11:56:51;;;;;;;0.00;0.00;;;;;;;;;;6211068;23;20015;-80
2023/12/11 11:59:17;;;;;;;0.00;0.00;;;;;;;;;;6211828;23;20012;-81
2023/12/11 12:01:56;;;;;;;0.00;0.00;;;;;;;;;;6210724;23;20016;-82
2023/12/11 12:04:28;;;;;;;0.00;0.00;;;;;;;;;;6185414;23;20019;-88
2023/12/11 12:06:56;;;;;;;0.00;0.00;;;;;;;;;;6239004;23;20069;-83
2023/12/11 12:09:22;;;;;;;0.00;0.00;;;;;;;;;;6213027;23;20085;-87
2023/12/11 12:11:49;;;;;;;0.00;0.00;;;;;;;;;;6240380;22;20473;-83
2023/12/11 12:14:15;;;;;;;0.00;0.00;;;;;;;;;;6214972;23;20039;-86
2023/12/11 12:16:41;;;;;;;0.00;0.00;;;;;;;;;;6219313;23;20008;-83
2023/12/11 12:19:06;;;;;;;0.00;0.00;;;;;;;;;;6247674;23;20083;-84
2023/12/11 12:21:45;;;;;;;0.00;0.00;;;;;;;;;;6260133;22;20031;-85
2023/12/11 12:24:11;;;;;;;0.00;0.00;;;;;;;;;;6247038;23;20008;-80
2023/12/11 12:26:36;;;;;;;0.00;0.00;;;;;;;;;;6224691;23;20064;-86
2023/12/11 12:29:03;;;;;;;0.00;0.00;;;;;;;;;;6250853;23;20244;-86
2023/12/11 12:31:30;;;;;;;0.00;0.00;;;;;;;;;;6217651;23;20087;-87
2023/12/11 12:33:56;;;;;;;0.00;0.00;;;;;;;;;;6240391;23;20075;-88
2023/12/11 12:36:21;;;;;;;0.00;0.00;;;;;;;;;;6243997;23;20520;-88
2023/12/11 12:38:47;;;;;;;0.00;0.00;;;;;;;;;;6241868;22;21004;-86
2023/12/11 12:41:12;;;;;;;0.00;0.00;;;;;;;;;;6218947;23;20023;-87
2023/12/11 12:43:38;;;;;;;0.00;0.00;;;;;;;;;;6244167;23;20040;-86
2023/12/11 12:46:04;;;;;;;0.22;0.00;;;;;;;;;;6241501;22;20012;-86
2023/12/11 12:48:29;;;;;;;0.00;0.00;;;;;;;;;;6238755;23;20011;-87
2023/12/11 12:51:11;;;;;;;0.00;0.00;;;;;;;;;;6190619;23;20070;-87
2023/12/11 12:53:50;;;;;;;0.00;0.00;;;;;;;;;;6242007;23;19996;-86
2023/12/11 12:56:19;;;;;;;0.00;0.00;;;;;;;;;;6215493;23;20008;-86
2023/12/11 12:58:48;;;;;;;0.00;0.00;;;;;;;;;;6211338;23;20087;-87
2023/12/11 13:01:14;;;;;;;0.00;0.00;;;;;;;;;;6242087;22;20004;-86
2023/12/11 13:03:40;;;;;;;0.00;0.00;;;;;;;;;;6242764;22;20000;-85
2023/12/11 13:06:06;;;;;;;0.00;0.00;;;;;;;;;;6241601;23;20097;-87
2023/12/11 13:08:42;;;;;;;0.00;0.00;;;;;;;;;;6240930;23;19996;-85
2023/12/11 13:11:08;;;;;;;0.00;0.00;;;;;;;;;;6215317;23;20354;-85
2023/12/11 13:13:33;;;;;;;0.00;0.00;;;;;;;;;;6227742;23;20008;-85
2023/12/11 13:15:59;;;;;;;0.00;0.00;;;;;;;;;;6213193;23;20008;-87
2023/12/11 13:18:25;;;;;;;0.00;0.00;;;;;;;;;;6235639;23;20091;-91
2023/12/11 13:20:50;;;;;;;0.00;0.00;;;;;;;;;;6232089;23;20004;-87
2023/12/11 13:23:18;;;;;;;0.00;0.00;;;;;;;;;;6240791;23;20007;-87
2023/12/11 13:25:43;;;;;;;0.00;0.00;;;;;;;;;;6214488;23;20008;-88
2023/12/11 13:28:09;;;;;;;0.25;0.00;;;;;;;;;;6238221;23;20004;-86
2023/12/11 13:30:35;;;;;;;0.00;0.00;;;;;;;;;;6237639;23;20007;-87
2023/12/11 13:33:02;;;;;;;0.00;0.00;;;;;;;;;;6189992;23;20015;-87
2023/12/11 13:35:28;;;;;;;0.00;0.00;;;;;;;;;;6213929;23;19996;-86
2023/12/11 13:37:53;;;;;;;0.00;0.00;;;;;;;;;;6239682;23;20415;-85
2023/12/11 13:40:20;;;;;;;0.00;0.00;;;;;;;;;;6225609;23;20007;-87
2023/12/11 13:42:46;;;;;;;0.00;0.00;;;;;;;;;;6231004;23;20034;-86
2023/12/11 13:45:11;;;;;;;0.00;0.00;;;;;;;;;;6231347;23;20000;-86
2023/12/11 13:47:38;;;;;;;0.00;0.00;;;;;;;;;;6235680;23;20015;-86
2023/12/11 13:50:04;;;;;;;0.00;0.00;;;;;;;;;;6228932;23;20000;-84
2023/12/11 13:52:30;;;;;;;0.00;0.00;;;;;;;;;;6224236;23;20014;-87
2023/12/11 13:54:55;;;;;;;0.00;0.00;;;;;;;;;;6243532;22;20078;-86
2023/12/11 13:57:21;;;;;;;0.00;0.00;;;;;;;;;;6249728;23;20379;-86
2023/12/11 13:59:47;;;;;;;0.00;0.00;;;;;;;;;;6215885;23;20011;-86
2023/12/11 14:02:13;;;;;;;0.00;0.00;;;;;;;;;;6244769;22;20012;-87
2023/12/11 14:04:38;;;;;;;0.00;0.00;;;;;;;;;;6192015;23;20009;-86
2023/12/11 14:07:04;;;;;;;0.00;0.00;;;;;;;;;;6218058;23;20343;-86
2023/12/11 14:09:30;;;;;;;0.00;0.00;;;;;;;;;;6217161;23;19996;-86
2023/12/11 14:11:59;;;;;;;0.00;0.00;;;;;;;;;;6241502;23;20587;-87
2023/12/11 14:14:24;;;;;;;0.00;0.00;;;;;;;;;;6241186;23;20579;-86
2023/12/11 14:16:50;;;;;;;0.00;0.00;;;;;;;;;;6242478;22;20004;-88
2023/12/11 14:19:19;;;;;;;0.00;0.00;;;;;;;;;;6241294;23;20423;-89
2023/12/11 14:21:44;;;;;;;0.00;0.00;;;;;;;;;;6216035;23;20107;-88
2023/12/11 14:24:11;;;;;;;0.00;0.00;;;;;;;;;;6242279;23;20010;-90
2023/12/11 14:26:36;;;;;;;0.00;0.00;;;;;;;;;;6192608;23;20015;-91
2023/12/11 14:29:02;;;;;;;0.00;0.00;;;;;;;;;;6242852;23;20000;-89
2023/12/11 14:31:27;;;;;;;0.00;0.00;;;;;;;;;;6217753;23;20012;-88
2023/12/11 14:33:53;;;;;;;0.00;0.00;;;;;;;;;;6242618;23;20042;-88
2023/12/11 14:36:18;;;;;;;0.00;0.00;;;;;;;;;;6242673;23;20368;-88
2023/12/11 14:38:44;;;;;;;0.00;0.00;;;;;;;;;;6243119;23;20022;-88
2023/12/11 14:41:10;;;;;;;0.00;0.00;;;;;;;;;;6243185;23;20008;-88
2023/12/11 14:43:35;;;;;;;0.00;0.00;;;;;;;;;;6242547;23;20011;-89
2023/12/11 14:46:01;;;;;;;0.00;0.00;;;;;;;;;;6242691;23;20027;-90
2023/12/11 14:48:27;;;;;;;0.00;0.00;;;;;;;;;;6243195;23;20004;-89
2023/12/11 14:50:54;;;;;;;0.00;0.00;;;;;;;;;;6242795;23;20347;-89
2023/12/11 14:53:19;;;;;;;0.00;0.00;;;;;;;;;;6244107;22;20004;-89
2023/12/11 14:55:45;;;;;;;0.22;0.00;;;;;;;;;;6244042;23;20007;-89
2023/12/11 14:58:10;;;;;;;0.00;0.00;;;;;;;;;;6242448;23;20000;-89
2023/12/11 15:00:36;;;;;;;0.00;0.00;;;;;;;;;;6242483;23;20347;-90
2023/12/11 15:03:02;;;;;;;0.10;0.00;;;;;;;;;;6242343;23;20691;-89
2023/12/11 15:05:28;;;;;;;0.03;0.00;;;;;;;;;;6242777;23;20350;-89
2023/12/11 15:07:53;;;;;;;0.00;0.00;;;;;;;;;;6243995;22;20004;-88
2023/12/11 15:10:19;;;;;;;0.00;0.00;;;;;;;;;;6217515;23;20404;-88
2023/12/11 15:12:44;;;;;;;0.00;0.00;;;;;;;;;;6242507;23;20008;-88
2023/12/11 15:15:10;;;;;;;0.10;0.00;;;;;;;;;;6242411;23;20000;-89
2023/12/11 15:17:35;;;;;;;0.00;0.00;;;;;;;;;;6242140;23;20083;-89
2023/12/11 15:20:09;;;;;;;0.00;0.00;;;;;;;;;;6192066;23;20358;-89
2023/12/11 15:22:34;;;;;;;0.00;0.00;;;;;;;;;;6242719;23;20402;-87
2023/12/11 15:25:00;;;;;;;0.00;0.00;;;;;;;;;;6217345;23;20004;-86
2023/12/11 15:27:25;;;;;;;0.00;0.00;;;;;;;;;;6192030;23;20099;-88